Latest Weather Observations for Geelong Racecourse

IDV60901

Issued at 8:41 am EST Wednesday 12 August 2020 (issued every 10 minutes, with the page automatically refreshed every 10 minutes)

About weather observations | Map of Melbourne area stations | Latest observations for Melbourne area | Other Formats
Station Details ID: 087184 Name: GEELONG RACECOURSE Lat: -38.17 Lon: 144.38 Height: 12.9 m
Data from the previous 72 hours. | See also: Recent months at Geelong Racecourse
Date/Time
EST
Temp
°C
App
Temp
°C
Dew
Point
°C
Rel
Hum
%
Delta-T
°C
Wind Press
QNH
hPa
Press
MSL
hPa
Rain since
9am
mm
Dir  Spd
km/h
Gust
km/h
Spd
kts
Gust
kts
12/08:30am 10.5 8.1 8.8 89 0.8 NE 11 17 6 9 1010.1 1010.1 1.4
12/08:00am 10.2 7.4 8.6 90 0.8 NNE 13 20 7 11 1010.1 1010.1 1.4
12/07:30am 10.0 7.9 8.4 90 0.8 NNE 9 13 5 7 1010.1 1010.1 1.4
12/07:00am 10.1 7.7 8.5 90 0.8 NNE 11 17 6 9 1010.0 1010.0 1.4
12/06:30am 10.2 8.2 8.5 89 0.8 NE 9 20 5 11 1009.8 1009.8 1.4
12/06:00am 10.3 7.9 8.6 89 0.8 NE 11 19 6 10 1010.0 1010.0 1.4
12/05:30am 10.2 7.3 8.3 88 0.9 NNE 13 19 7 10 1010.1 1010.1 1.4
12/05:00am 10.2 7.4 8.5 89 0.8 NNE 13 19 7 10 1010.0 1010.0 1.4
12/04:30am 10.3 7.5 8.4 88 0.9 NNE 13 19 7 10 1009.9 1009.9 1.4
12/04:00am 10.4 8.3 8.2 86 1.1 NNE 9 17 5 9 1010.2 1010.2 1.0
12/03:30am 10.7 7.8 8.1 84 1.3 NNE 13 19 7 10 1010.3 1010.3 0.6
12/03:00am 11.1 7.3 7.6 79 1.7 NNE 17 26 9 14 1010.3 1010.3 0.6
12/02:30am 11.1 7.4 7.8 80 1.6 NNE 17 28 9 15 1010.8 1010.8 0.6
12/02:00am 11.0 8.0 7.5 79 1.7 NNE 13 20 7 11 1011.4 1011.4 0.4
12/01:30am 11.3 7.8 7.4 77 1.9 NNE 15 24 8 13 1011.6 1011.6 0.4
12/01:00am 11.0 8.3 7.5 79 1.7 NNE 11 17 6 9 1012.0 1012.0 0.4
12/12:30am 11.0 8.3 7.5 79 1.7 NNE 11 17 6 9 1012.2 1012.2 0.2
12/12:00am 11.1 8.7 7.2 77 1.9 NE 9 19 5 10 1012.3 1012.3 0.2
 
Date/Time
EST
Temp
°C
App
Temp
°C
Dew
Point
°C
Rel
Hum
%
Delta-T
°C
Wind Press
QNH
hPa
Press
MSL
hPa
Rain since
9am
mm
Dir  Spd
km/h
Gust
km/h
Spd
kts
Gust
kts
11/11:30pm 10.6 8.4 7.7 82 1.4 NE 9 11 5 6 1012.6 1012.6 0.2
11/11:00pm 11.3 8.1 6.8 74 2.1 NNE 13 22 7 12 1012.8 1012.8 0.0
11/10:30pm 11.5 7.9 6.8 73 2.2 NNE 15 22 8 12 1012.9 1012.9 0.0
11/10:00pm 11.6 7.6 6.5 71 2.4 NE 17 24 9 13 1012.9 1012.9 0.0
11/09:30pm 11.5 7.8 6.4 71 2.4 NNE 15 24 8 13 1013.2 1013.2 0.0
11/09:00pm 11.6 7.9 6.3 70 2.5 NNE 15 22 8 12 1013.4 1013.4 0.0
11/08:30pm 11.7 7.6 6.4 70 2.5 NNE 17 26 9 14 1013.4 1013.4 0.0
11/08:00pm 11.7 7.4 6.8 72 2.3 NNE 19 28 10 15 1013.3 1013.3 0.0
11/07:30pm 11.8 8.2 6.7 71 2.4 NE 15 20 8 11 1013.3 1013.3 0.0
11/07:00pm 11.8 7.8 6.7 71 2.4 NNE 17 24 9 13 1013.5 1013.5 0.0
11/06:30pm 12.1 8.1 6.6 69 2.6 NNE 17 22 9 12 1013.3 1013.3 0.0
11/06:00pm 12.0 8.4 6.7 70 2.5 NNE 15 24 8 13 1013.2 1013.2 0.0
11/05:30pm 12.2 9.0 6.9 70 2.5 NNE 13 20 7 11 1013.3 1013.3 0.0
11/05:00pm 12.6 9.7 6.4 66 2.9 NNE 11 19 6 10 1013.5 1013.5 0.0
11/04:30pm 13.2 8.4 4.9 57 3.8 NNE 19 26 10 14 1013.3 1013.3 0.0
11/04:00pm 13.4 9.9 5.3 58 3.8 NNE 13 24 7 13 1013.6 1013.6 0.0
11/03:30pm 14.3 11.0 6.4 59 3.8 N 13 19 7 10 1013.9 1013.9 0.0
11/03:00pm 15.2 10.4 5.7 53 4.5 NNE 20 30 11 16 1014.2 1014.2 0.0
11/02:30pm 15.8 10.8 6.5 54 4.5 N 22 32 12 17 1013.9 1013.9 0.0
11/02:00pm 16.4 10.9 6.0 50 5.0 N 24 35 13 19 1014.4 1014.4 0.0
11/01:30pm 16.5 12.0 6.9 53 4.7 N 20 32 11 17 1014.7 1014.7 0.0
11/01:00pm 15.9 11.9 6.6 54 4.5 N 17 28 9 15 1015.0 1015.0 0.0
11/12:30pm 15.1 10.7 6.4 56 4.2 N 19 30 10 16 1015.8 1015.8 0.0
11/12:00pm 14.6 10.6 6.7 59 3.8 N 17 30 9 16 1016.4 1016.4 0.0
11/11:30am 12.8 9.2 8.3 74 2.2 NE 17 24 9 13 1016.8 1016.8 0.0
11/11:00am 11.4 8.4 7.5 77 1.9 NE 13 22 7 12 1017.2 1017.2 0.0
11/10:30am 10.2 6.7 7.3 82 1.4 NE 15 22 8 12 1017.5 1017.5 0.0
11/10:00am 10.8 7.3 7.3 79 1.7 NNE 15 22 8 12 1017.5 1017.5 0.0
11/09:30am 9.9 7.0 6.3 78 1.7 NNE 11 22 6 12 1017.7 1017.7 0.0
11/09:00am 8.0 5.9 5.8 86 1.0 NNE 6 7 3 4 1018.0 1018.0 0.2
11/08:30am 6.2 4.3 5.0 92 0.5 N 4 6 2 3 1018.4 1018.4 0.2
11/08:00am 5.5 3.0 4.5 93 0.4 NNE 7 9 4 5 1018.4 1018.4 0.2
11/07:30am 3.9 2.5 3.3 96 0.2 CALM 0 2 0 1 1018.6 1018.6 0.2
11/07:00am 4.4 2.3 3.7 95 0.3 N 4 6 2 3 1018.3 1018.3 0.2
11/06:30am 5.1 2.7 4.2 94 0.4 NNE 6 7 3 4 1018.2 1018.2 0.2
11/06:00am 5.7 2.8 4.5 92 0.5 NE 9 11 5 6 1017.8 1017.8 0.2
11/05:30am 5.5 3.0 4.8 95 0.3 NNE 7 9 4 5 1017.9 1017.9 0.2
11/05:00am 5.8 2.6 5.1 95 0.3 NNE 11 17 6 9 1018.3 1018.3 0.0
11/04:30am 6.0 2.9 5.4 96 0.3 NNE 11 15 6 8 1018.5 1018.5 0.0
11/04:00am 4.9 2.4 4.8 99 0.0 NNE 7 13 4 7 1018.8 1018.8 0.0
11/03:30am 3.1 0.8 2.8 98 0.1 N 4 6 2 3 1019.0 1019.0 0.0
11/03:00am 3.7 1.8 3.1 96 0.2 NNE 2 4 1 2 1018.8 1018.8 0.0
11/02:30am 4.5 2.5 4.4 99 0.0 NE 4 6 2 3 1019.1 1019.1 0.0
11/02:00am 3.4 1.5 3.1 98 0.1 NNW 2 4 1 2 1019.4 1019.4 0.0
11/01:30am 4.0 1.9 3.9 99 0.0 NW 4 4 2 2 1019.4 1019.4 0.0
11/01:00am 3.5 1.3 3.2 98 0.1 NW 4 6 2 3 1019.3 1019.3 0.0
11/12:30am 3.9 2.5 3.8 99 0.0 CALM 0 4 0 2 1019.2 1019.2 0.0
11/12:00am 4.7 3.1 4.4 98 0.1 NW 2 2 1 1 1019.3 1019.3 0.0
 
Date/Time
EST
Temp
°C
App
Temp
°C
Dew
Point
°C
Rel
Hum
%
Delta-T
°C
Wind Press
QNH
hPa
Press
MSL
hPa
Rain since
9am
mm
Dir  Spd
km/h
Gust
km/h
Spd
kts
Gust
kts
10/11:30pm 4.9 3.7 4.6 98 0.1 CALM 0 0 0 0 1019.6 1019.6 0.0
10/11:00pm 5.2 3.3 4.9 98 0.1 WNW 4 4 2 2 1019.6 1019.6 0.0
10/10:30pm 5.2 3.7 4.8 97 0.2 W 2 4 1 2 1019.9 1019.9 0.0
10/10:00pm 6.1 5.1 5.7 97 0.2 CALM 0 0 0 0 1019.8 1019.8 0.0
10/09:30pm 6.5 5.6 6.2 98 0.1 CALM 0 0 0 0 1019.9 1019.9 0.0
10/09:00pm 6.5 5.6 5.9 96 0.3 CALM 0 0 0 0 1019.9 1019.9 0.0
10/08:30pm 7.3 6.5 6.6 95 0.3 CALM 0 0 0 0 1019.9 1019.9 0.0
10/08:00pm 7.6 6.5 6.7 94 0.4 WSW 2 2 1 1 1020.0 1020.0 0.0
10/07:30pm 8.1 7.1 7.2 94 0.4 WSW 2 4 1 2 1020.0 1020.0 0.0
10/07:00pm 8.2 6.6 6.5 89 0.8 W 4 6 2 3 1019.9 1019.9 0.0
10/06:30pm 8.4 6.7 6.0 85 1.1 SSW 4 6 2 3 1019.5 1019.5 0.0
10/06:00pm 10.6 9.9 6.9 78 1.7 CALM 0 0 0 0 1019.0 1019.0 0.0
10/05:30pm 12.1 10.3 7.0 71 2.4 ENE 6 9 3 5 1019.1 1019.1 0.0
10/05:00pm 13.1 11.2 7.5 69 2.7 ENE 7 9 4 5 1019.1 1019.1 0.0
10/04:30pm 13.5 11.3 7.7 68 2.9 E 9 13 5 7 1019.3 1019.3 0.0
10/04:00pm 13.8 11.4 7.1 64 3.3 NE 9 13 5 7 1019.5 1019.5 0.0
10/03:30pm 13.9 11.5 7.2 64 3.3 NNE 9 13 5 7 1020.1 1020.1 0.0
10/03:00pm 13.9 11.3 7.9 67 3.0 NNE 11 15 6 8 1020.4 1020.4 0.0
10/02:30pm 14.0 10.7 8.2 68 2.9 NNE 15 20 8 11 1020.5 1020.5 0.0
10/02:00pm 14.8 12.4 6.9 59 3.8 E 9 15 5 8 1020.8 1020.8 0.0
10/01:30pm 14.5 12.6 6.8 60 3.7 ENE 6 9 3 5 1021.1 1021.1 0.0
10/01:00pm 13.9 11.8 8.1 68 2.9 NNE 9 13 5 7 1021.6 1021.6 0.0
10/12:30pm 13.9 11.8 8.1 68 2.9 NE 9 17 5 9 1021.8 1021.8 0.0
10/12:00pm 13.7 11.3 8.5 71 2.6 NNE 11 15 6 8 1022.5 1022.5 0.0
10/11:30am 13.5 11.4 8.1 70 2.7 ENE 9 17 5 9 1023.0 1023.0 0.0
10/11:00am 12.7 10.7 8.6 76 2.0 ENE 9 17 5 9 1023.3 1023.3 0.0
10/10:30am 12.4 9.7 7.5 72 2.4 E 11 17 6 9 1023.4 1023.4 0.0
10/10:00am 12.1 10.0 8.4 78 1.8 ESE 9 15 5 8 1023.5 1023.5 0.0
10/09:30am 11.3 9.4 9.2 87 1.0 SE 9 15 5 8 1023.8 1023.8 0.0
10/09:00am 10.4 8.8 8.8 90 0.8 SE 7 11 4 6 1023.9 1023.9 0.2
10/08:30am 8.3 7.2 8.3 100 0.0 SE 4 7 2 4 1023.7 1023.7 0.2
10/08:00am 5.6 4.6 5.6 100 0.0 CALM 0 2 0 1 1023.4 1023.4 0.2
10/07:30am 4.5 3.3 4.4 99 0.0 CALM 0 0 0 0 1023.1 1023.1 0.2
10/07:00am 5.7 3.9 5.6 99 0.0 SSE 4 6 2 3 1022.9 1022.9 0.2
10/06:30am 5.9 4.2 5.9 100 0.0 SSE 4 6 2 3 1022.5 1022.5 0.2
10/06:00am 5.2 3.3 5.1 99 0.0 S 4 4 2 2 1022.4 1022.4 0.2
10/05:30am 5.2 3.7 5.1 99 0.0 S 2 4 1 2 1022.3 1022.3 0.2
10/05:00am 5.4 3.5 5.1 98 0.1 WSW 4 6 2 3 1022.4 1022.4 0.2
10/04:30am 6.7 4.5 6.3 97 0.2 SSE 7 9 4 5 1022.4 1022.4 0.2
10/04:00am 6.4 4.4 6.3 99 0.0 SSE 6 7 3 4 1022.2 1022.2 0.2
10/03:30am 6.5 4.7 5.5 93 0.4 SSW 4 4 2 2 1022.1 1022.1 0.2
10/03:00am 8.0 6.1 6.8 92 0.6 SE 6 7 3 4 1022.2 1022.2 0.2
10/02:30am 8.1 6.1 6.9 92 0.6 SE 7 9 4 5 1022.0 1022.0 0.2
10/02:00am 8.2 6.1 6.8 91 0.6 SE 7 9 4 5 1022.2 1022.2 0.2
10/01:30am 8.3 6.4 6.6 89 0.8 SE 6 13 3 7 1022.2 1022.2 0.2
10/01:00am 8.7 6.7 7.2 90 0.7 ESE 7 11 4 6 1022.3 1022.3 0.2
10/12:30am 8.6 6.6 7.1 90 0.7 SE 7 9 4 5 1022.4 1022.4 0.2
10/12:00am 8.9 6.9 7.0 88 0.9 SE 7 11 4 6 1022.4 1022.4 0.2
 
Date/Time
EST
Temp
°C
App
Temp
°C
Dew
Point
°C
Rel
Hum
%
Delta-T
°C
Wind Press
QNH
hPa
Press
MSL
hPa
Rain since
9am
mm
Dir  Spd
km/h
Gust
km/h
Spd
kts
Gust
kts
09/11:30pm 8.8 6.8 7.1 89 0.8 SE 7 11 4 6 1022.5 1022.5 0.2
09/11:00pm 8.9 7.1 7.2 89 0.8 ESE 6 9 3 5 1022.4 1022.4 0.2
09/10:30pm 9.3 7.4 7.6 89 0.8 SE 7 13 4 7 1022.4 1022.4 0.2
09/10:00pm 9.7 7.9 7.8 88 0.9 SE 7 13 4 7 1022.5 1022.5 0.2
09/09:30pm 10.0 7.9 8.3 89 0.8 SE 9 17 5 9 1022.4 1022.4 0.2
09/09:00pm 10.1 7.6 8.2 88 0.9 SE 11 19 6 10 1022.3 1022.3 0.2
09/08:30pm 9.6 7.8 8.0 90 0.8 SSE 7 11 4 6 1022.3 1022.3 0.2
09/08:00pm 10.4 7.9 8.3 87 1.0 SE 11 17 6 9 1022.1 1022.1 0.2
09/07:30pm 10.7 7.5 8.3 85 1.2 SE 15 20 8 11 1022.3 1022.3 0.2
09/07:00pm 10.8 7.2 8.4 85 1.2 SSE 17 24 9 13 1022.2 1022.2 0.2
09/06:30pm 10.9 7.7 8.5 85 1.2 SE 15 22 8 12 1021.9 1021.9 0.2
09/06:00pm 11.0 7.4 8.4 84 1.3 SSE 17 30 9 16 1021.5 1021.5 0.2
09/05:30pm 11.5 7.6 8.5 82 1.5 SSE 19 30 10 16 1021.2 1021.2 0.2
09/05:00pm 12.0 8.1 8.7 80 1.6 SSE 19 28 10 15 1020.8 1020.8 0.2
09/04:30pm 12.4 7.9 8.5 77 1.9 SSE 22 32 12 17 1020.5 1020.5 0.2
09/04:00pm 13.1 8.7 8.8 75 2.2 SE 22 35 12 19 1020.2 1020.2 0.2
09/03:30pm 13.3 9.3 9.0 75 2.2 SE 20 30 11 16 1020.0 1020.0 0.2
09/03:00pm 13.6 8.8 8.7 72 2.5 SE 24 37 13 20 1020.0 1020.0 0.2
09/02:30pm 13.8 8.6 8.8 72 2.5 SE 26 37 14 20 1020.0 1020.0 0.2
09/02:00pm 14.0 9.3 9.2 73 2.4 SE 24 35 13 19 1020.2 1020.2 0.2
09/01:30pm 13.8 9.4 9.0 73 2.4 SE 22 32 12 17 1020.3 1020.3 0.2
09/01:00pm 13.2 8.4 8.7 74 2.2 SE 24 37 13 20 1020.5 1020.5 0.2
09/12:30pm 13.3 9.0 9.2 76 2.1 SE 22 35 12 19 1020.7 1020.7 0.0
09/12:00pm 13.0 8.3 9.3 78 1.9 SE 24 35 13 19 1021.0 1021.0 0.0
09/11:30am 13.2 9.3 9.6 79 1.8 SSE 20 30 11 16 1021.1 1021.1 0.0
09/11:00am 12.8 8.9 9.4 80 1.7 SE 20 32 11 17 1021.3 1021.3 0.0
09/10:30am 12.5 8.9 9.9 84 1.3 SE 19 28 10 15 1021.3 1021.3 0.0
09/10:00am 11.7 9.2 9.6 87 1.1 SE 13 26 7 14 1021.1 1021.1 0.0
09/09:30am 11.7 8.3 9.1 84 1.3 SE 17 28 9 15 1021.0 1021.0 0.0
09/09:00am 11.3 8.2 9.0 86 1.1 SE 15 20 8 11 1020.9 1020.9 1.6

Latest Capital City Observations: Canberra | Sydney | Melbourne | Brisbane | Adelaide | Perth | Hobart | Darwin

Other formats

Comma delimited format used in spreadsheet applications
http://www.bom.gov.au/fwo/IDV60901/IDV60901.94857.axf

JavaScript Object Notation format (JSON) in row-major order
http://www.bom.gov.au/fwo/IDV60901/IDV60901.94857.json

Data quality

Most of these data are generated automatically and are frequently updated. Quality checks on data are not normally performed. It is possible for incorrect values to appear. Refer to information at About Latest Weather Observations and please check the disclaimer before using these data.